createdAt,value
2019-02-28T00:01:28.568Z,92.60
2019-02-28T00:04:01.034Z,93.00
2019-02-28T00:06:32.489Z,93.20
2019-02-28T00:09:04.912Z,93.30
2019-02-28T00:11:39.575Z,93.50
2019-02-28T00:14:10.992Z,93.50
2019-02-28T00:16:42.371Z,93.40
2019-02-28T00:19:13.794Z,93.40
2019-02-28T00:21:45.109Z,93.40
2019-02-28T00:24:16.540Z,93.30
2019-02-28T00:26:48.041Z,93.40
2019-02-28T00:29:19.438Z,93.50
2019-02-28T00:31:51.065Z,93.40
2019-02-28T00:34:22.359Z,93.50
2019-02-28T00:36:54.102Z,93.70
2019-02-28T00:39:25.786Z,93.70
2019-02-28T00:41:57.182Z,93.80
2019-02-28T00:44:31.234Z,93.70
2019-02-28T00:47:01.665Z,93.70
2019-02-28T00:49:32.990Z,93.70
2019-02-28T00:52:04.548Z,93.70
2019-02-28T00:54:35.997Z,93.70
2019-02-28T00:57:07.401Z,94.30
2019-02-28T00:59:38.924Z,94.10
2019-02-28T01:02:10.268Z,94.30
2019-02-28T01:04:42.472Z,94.70
2019-02-28T01:07:16.274Z,94.90
2019-02-28T01:09:46.894Z,94.80
2019-02-28T01:12:19.186Z,94.70
2019-02-28T01:14:51.412Z,94.60
2019-02-28T01:17:24.052Z,94.70
2019-02-28T01:19:56.177Z,94.70
2019-02-28T01:22:28.106Z,94.60
2019-02-28T01:24:59.937Z,94.60
2019-02-28T01:27:31.272Z,94.70
2019-02-28T01:30:02.595Z,94.70
2019-02-28T01:32:35.116Z,94.70
2019-02-28T01:35:08.566Z,94.70
2019-02-28T01:37:40.034Z,94.60
2019-02-28T01:40:15.544Z,94.60
2019-02-28T01:42:59.074Z,94.50
2019-02-28T01:45:30.396Z,94.50
2019-02-28T01:48:01.804Z,94.40
2019-02-28T01:50:33.203Z,94.40
2019-02-28T01:53:04.512Z,94.30
2019-02-28T01:55:36.002Z,94.20
2019-02-28T01:58:07.330Z,94.10
2019-02-28T02:00:38.849Z,94.10
2019-02-28T02:03:10.284Z,94.20
2019-02-28T02:05:41.798Z,94.20
2019-02-28T02:08:13.244Z,94.40
2019-02-28T02:10:44.800Z,94.40
2019-02-28T02:13:16.189Z,94.50
2019-02-28T02:15:51.414Z,94.40
2019-02-28T02:18:21.687Z,94.40
2019-02-28T02:20:53.021Z,94.40
2019-02-28T02:23:25.443Z,94.50
2019-02-28T02:25:56.839Z,94.60
2019-02-28T02:28:28.223Z,94.60
2019-02-28T02:30:59.609Z,94.70
2019-02-28T02:33:31.000Z,94.80
2019-02-28T02:36:02.543Z,94.90
2019-02-28T02:38:39.866Z,95.20
2019-02-28T02:41:07.118Z,95.20
2019-02-28T02:43:38.429Z,95.30
2019-02-28T02:46:09.784Z,95.60
2019-02-28T02:48:42.330Z,95.70
2019-02-28T02:51:14.327Z,95.50
2019-02-28T02:53:49.955Z,95.70
2019-02-28T02:56:21.421Z,95.90
2019-02-28T02:58:52.827Z,96.10
2019-02-28T03:01:24.515Z,96.40
2019-02-28T03:03:56.201Z,96.30
2019-02-28T03:06:28.438Z,96.40
2019-02-28T03:08:59.942Z,96.50
2019-02-28T03:11:31.300Z,96.40
2019-02-28T03:14:02.605Z,96.00
2019-02-28T03:16:37.779Z,95.40
2019-02-28T03:19:09.265Z,95.40
2019-02-28T03:21:40.638Z,95.40
2019-02-28T03:24:15.148Z,95.40
2019-02-28T03:26:44.899Z,95.60
2019-02-28T03:29:16.187Z,95.60
2019-02-28T03:31:54.552Z,96.10
2019-02-28T03:34:20.680Z,95.80
2019-02-28T03:36:57.061Z,95.90
2019-02-28T03:39:25.790Z,95.90
2019-02-28T03:41:57.225Z,95.90
2019-02-28T03:44:28.494Z,96.30
2019-02-28T03:46:59.858Z,96.20
2019-02-28T03:49:31.135Z,96.20
2019-02-28T03:52:06.710Z,96.10
2019-02-28T03:54:35.449Z,96.10
2019-02-28T03:57:06.857Z,96.20
2019-02-28T03:59:38.265Z,96.20
2019-02-28T04:02:09.691Z,96.30
2019-02-28T04:04:48.423Z,96.40
2019-02-28T04:07:16.043Z,96.30
2019-02-28T04:09:47.170Z,96.60
2019-02-28T04:12:18.518Z,96.80
2019-02-28T04:14:49.774Z,96.50
2019-02-28T04:17:21.142Z,96.20
2019-02-28T04:19:58.622Z,96.50
2019-02-28T04:22:25.462Z,96.80
2019-02-28T04:24:56.728Z,96.90
2019-02-28T04:27:29.699Z,96.90
2019-02-28T04:30:05.867Z,97.00
2019-02-28T04:32:35.359Z,97.10
2019-02-28T04:35:06.935Z,97.50
2019-02-28T04:37:44.675Z,97.30
2019-02-28T04:40:14.254Z,97.20
2019-02-28T04:42:45.713Z,97.10
2019-02-28T04:45:17.099Z,97.00
2019-02-28T04:47:48.578Z,97.20
2019-02-28T04:50:20.032Z,97.40
2019-02-28T04:52:51.321Z,97.80
2019-02-28T04:55:23.582Z,98.10
2019-02-28T04:57:54.865Z,98.60
2019-02-28T05:00:26.366Z,98.50
2019-02-28T05:02:57.679Z,98.40
2019-02-28T05:05:30.081Z,98.00
2019-02-28T05:08:05.706Z,98.10
2019-02-28T05:10:35.750Z,97.90
2019-02-28T05:13:07.167Z,97.90
2019-02-28T05:15:40.910Z,97.80
2019-02-28T05:18:11.463Z,98.20
2019-02-28T05:20:45.927Z,97.90
2019-02-28T05:23:16.108Z,98.20
2019-02-28T05:25:52.132Z,98.60
2019-02-28T05:28:23.322Z,98.70
2019-02-28T05:30:57.950Z,99.10
2019-02-28T05:33:29.338Z,99.60
2019-02-28T05:36:04.171Z,99.30
2019-02-28T05:38:33.930Z,99.80
2019-02-28T05:41:05.364Z,99.60
2019-02-28T05:43:36.694Z,99.60
2019-02-28T05:46:08.029Z,99.60
2019-02-28T05:48:39.584Z,99.60
2019-02-28T05:51:11.067Z,99.40
2019-02-28T05:53:42.766Z,99.30
2019-02-28T05:56:14.169Z,99.00
2019-02-28T05:58:45.441Z,99.10
2019-02-28T06:01:16.895Z,99.10
2019-02-28T06:03:48.170Z,99.30
2019-02-28T06:06:20.248Z,99.30
2019-02-28T06:08:53.218Z,99.30
2019-02-28T06:11:24.629Z,99.50
2019-02-28T06:13:56.167Z,99.40
2019-02-28T06:16:27.476Z,99.40
2019-02-28T06:18:58.783Z,99.70
2019-02-28T06:21:30.110Z,99.70
2019-02-28T06:24:01.450Z,99.40
2019-02-28T06:26:33.007Z,99.20
2019-02-28T06:29:04.947Z,99.30
2019-02-28T06:31:37.002Z,99.70
2019-02-28T06:34:09.391Z,99.80
2019-02-28T06:36:40.672Z,99.90
2019-02-28T06:39:12.132Z,99.90
2019-02-28T06:41:43.458Z,99.90
2019-02-28T06:44:14.787Z,99.90
2019-02-28T06:46:46.185Z,99.90
2019-02-28T06:49:17.598Z,99.90
2019-02-28T06:51:51.359Z,99.90
2019-02-28T06:54:21.934Z,99.90
2019-02-28T06:56:54.099Z,99.90
2019-02-28T06:59:26.313Z,99.90
2019-02-28T07:01:57.728Z,99.90
2019-02-28T07:04:30.194Z,99.80
2019-02-28T07:07:01.466Z,99.70
2019-02-28T07:09:33.626Z,99.80
2019-02-28T07:12:05.961Z,99.80
2019-02-28T07:14:37.478Z,99.60
2019-02-28T07:17:10.790Z,99.50
2019-02-28T07:19:41.994Z,99.50
2019-02-28T07:22:19.151Z,99.40
2019-02-28T07:24:46.493Z,99.50
2019-02-28T07:27:17.825Z,99.30
2019-02-28T07:29:49.168Z,99.30
2019-02-28T07:32:20.691Z,99.30
2019-02-28T07:34:57.746Z,99.20
2019-02-28T07:37:24.997Z,99.30
2019-02-28T07:39:56.441Z,99.10
2019-02-28T07:42:27.870Z,99.10
2019-02-28T07:44:59.182Z,99.30
2019-02-28T07:47:30.517Z,99.10
2019-02-28T07:50:03.592Z,98.90
2019-02-28T07:52:34.843Z,98.70
2019-02-28T07:55:19.635Z,98.70
2019-02-28T07:57:53.285Z,98.90
2019-02-28T08:00:27.262Z,99.20
2019-02-28T08:02:58.665Z,99.50
2019-02-28T08:05:30.908Z,99.80
2019-02-28T08:08:03.567Z,99.10
2019-02-28T08:10:36.445Z,98.30
2019-02-28T08:13:07.806Z,97.40
2019-02-28T08:15:39.303Z,97.10
2019-02-28T08:18:10.796Z,96.80
2019-02-28T08:20:42.340Z,96.40
2019-02-28T08:23:13.757Z,95.90
2019-02-28T08:25:45.146Z,95.80
2019-02-28T08:28:16.529Z,95.40
2019-02-28T08:30:47.958Z,94.50
2019-02-28T08:33:21.055Z,94.30
2019-02-28T08:35:52.348Z,94.10
2019-02-28T08:38:23.854Z,94.10
2019-02-28T08:40:55.204Z,93.80
2019-02-28T08:43:27.328Z,93.60
2019-02-28T08:45:58.877Z,93.50
2019-02-28T08:48:32.440Z,93.30
2019-02-28T08:51:03.385Z,93.40
2019-02-28T08:53:34.938Z,93.20
2019-02-28T08:56:06.411Z,93.00
2019-02-28T08:58:38.511Z,92.90
2019-02-28T09:01:09.973Z,92.60
2019-02-28T09:03:41.320Z,92.50
2019-02-28T09:06:12.670Z,92.30
2019-02-28T09:08:45.365Z,92.60
2019-02-28T09:11:20.538Z,92.60
2019-02-28T09:13:49.832Z,92.30
2019-02-28T09:16:21.118Z,92.40
2019-02-28T09:18:52.696Z,92.60
2019-02-28T09:21:24.122Z,92.20
2019-02-28T09:23:55.581Z,92.40
2019-02-28T09:26:31.398Z,92.60
2019-02-28T09:29:01.750Z,92.40
2019-02-28T09:31:38.712Z,92.00
2019-02-28T09:34:09.244Z,92.00
2019-02-28T09:36:40.710Z,92.30
2019-02-28T09:39:12.264Z,91.60
2019-02-28T09:41:43.684Z,91.60
2019-02-28T09:44:15.098Z,91.70
2019-02-28T09:46:50.386Z,91.60
2019-02-28T09:49:19.480Z,92.00
2019-02-28T09:51:51.910Z,92.40
2019-02-28T09:54:24.380Z,91.60
2019-02-28T09:56:56.399Z,91.60
2019-02-28T09:59:27.690Z,91.20
2019-02-28T10:02:01.603Z,90.80
2019-02-28T10:04:32.580Z,90.90
2019-02-28T10:07:03.986Z,90.80
2019-02-28T10:09:35.284Z,91.10
2019-02-28T10:12:07.807Z,90.70
2019-02-28T10:14:40.062Z,90.90
2019-02-28T10:17:11.472Z,90.60
2019-02-28T10:19:45.787Z,90.10
2019-02-28T10:22:15.943Z,90.20
2019-02-28T10:24:47.327Z,89.70
2019-02-28T10:27:18.811Z,90.20
2019-02-28T10:29:50.318Z,90.10
2019-02-28T10:32:21.792Z,89.10
2019-02-28T10:34:54.225Z,87.30
2019-02-28T10:37:25.566Z,88.00
2019-02-28T10:39:56.872Z,87.70
2019-02-28T10:42:28.270Z,87.20
2019-02-28T10:44:59.540Z,85.80
2019-02-28T10:47:32.094Z,84.60
2019-02-28T10:50:03.553Z,84.40
2019-02-28T10:52:34.904Z,83.70
2019-02-28T10:55:10.958Z,84.60
2019-02-28T10:57:42.549Z,84.80
2019-02-28T11:00:32.834Z,84.10
2019-02-28T11:03:04.480Z,84.30
2019-02-28T11:05:42.692Z,84.90
2019-02-28T11:08:19.150Z,85.00
2019-02-28T11:10:50.139Z,81.70
2019-02-28T11:13:23.021Z,81.80
2019-02-28T11:15:56.325Z,81.80
2019-02-28T11:18:27.823Z,81.10
2019-02-28T11:20:59.387Z,81.60
2019-02-28T11:23:30.932Z,80.20
2019-02-28T11:26:03.437Z,81.10
2019-02-28T11:28:35.929Z,79.50
2019-02-28T11:31:11.185Z,79.40
2019-02-28T11:33:43.212Z,79.90
2019-02-28T11:36:14.555Z,79.40
2019-02-28T11:38:45.899Z,77.70
2019-02-28T11:41:18.708Z,77.60
2019-02-28T11:43:50.423Z,78.80
2019-02-28T11:46:21.791Z,76.50
2019-02-28T11:48:54.140Z,77.60
2019-02-28T11:51:26.620Z,78.10
2019-02-28T11:53:58.090Z,78.50
2019-02-28T11:56:29.601Z,76.40
2019-02-28T11:59:01.051Z,77.20
2019-02-28T12:01:32.445Z,76.00
2019-02-28T12:04:03.869Z,75.80
2019-02-28T12:06:35.614Z,76.70
2019-02-28T12:09:08.118Z,76.90
2019-02-28T12:11:39.596Z,74.30
2019-02-28T12:14:11.067Z,74.70
2019-02-28T12:16:42.577Z,74.80
2019-02-28T12:19:15.922Z,73.70
2019-02-28T12:21:47.102Z,72.80
2019-02-28T12:24:18.497Z,70.90
2019-02-28T12:26:52.617Z,70.60
2019-02-28T12:29:23.046Z,71.50
2019-02-28T12:31:54.321Z,71.30
2019-02-28T12:34:28.741Z,69.80
2019-02-28T12:36:59.910Z,70.50
2019-02-28T12:39:33.278Z,68.60
2019-02-28T12:42:04.484Z,66.80
2019-02-28T12:44:35.840Z,67.30
2019-02-28T12:47:07.445Z,67.80
2019-02-28T12:49:38.938Z,67.70
2019-02-28T12:52:11.251Z,66.00
2019-02-28T12:54:43.375Z,66.90
2019-02-28T12:57:15.520Z,67.10
2019-02-28T12:59:47.047Z,68.00
2019-02-28T13:02:18.498Z,68.80
2019-02-28T13:04:49.874Z,66.30
2019-02-28T13:07:21.251Z,67.70
2019-02-28T13:09:52.688Z,67.60
2019-02-28T13:12:24.043Z,68.50
2019-02-28T13:14:55.484Z,69.20
2019-02-28T13:17:31.612Z,70.00
2019-02-28T13:20:02.973Z,70.20
2019-02-28T13:22:40.411Z,70.80
2019-02-28T13:25:13.892Z,70.40
2019-02-28T13:27:46.978Z,70.20
2019-02-28T13:30:29.318Z,70.80
2019-02-28T13:33:15.001Z,71.30
2019-02-28T13:35:47.574Z,72.30
2019-02-28T13:38:20.967Z,71.30
2019-02-28T13:40:52.449Z,73.00
2019-02-28T13:43:23.839Z,72.20
2019-02-28T13:45:56.282Z,71.50
2019-02-28T13:48:33.186Z,73.10
2019-02-28T13:51:02.396Z,71.60
2019-02-28T13:53:34.772Z,72.60
2019-02-28T13:56:06.241Z,72.60
2019-02-28T13:58:37.668Z,72.00
2019-02-28T14:01:09.281Z,71.60
2019-02-28T14:03:42.324Z,72.80
2019-02-28T14:08:47.646Z,73.20
2019-02-28T14:11:19.518Z,73.30
2019-02-28T14:13:50.881Z,72.00
2019-02-28T14:16:34.283Z,72.80
2019-02-28T14:19:06.476Z,73.10
2019-02-28T14:21:39.418Z,73.60
2019-02-28T14:24:12.002Z,73.90
2019-02-28T14:26:46.529Z,72.70
2019-02-28T14:29:17.930Z,73.20
2019-02-28T14:31:49.383Z,74.00
2019-02-28T14:34:20.835Z,74.60
2019-02-28T14:36:52.357Z,74.60
2019-02-28T14:39:23.837Z,74.40
2019-02-28T14:41:57.049Z,74.70
2019-02-28T14:44:31.735Z,75.20
2019-02-28T14:47:02.532Z,75.40
2019-02-28T14:49:33.940Z,75.10
2019-02-28T14:52:05.965Z,74.90
2019-02-28T14:54:37.565Z,71.90
2019-02-28T14:57:09.026Z,71.60
2019-02-28T14:59:40.388Z,71.30
2019-02-28T15:02:12.987Z,70.90
2019-02-28T15:04:45.829Z,70.30
2019-02-28T15:07:17.579Z,71.10
2019-02-28T15:09:48.934Z,69.70
2019-02-28T15:12:23.353Z,69.80
2019-02-28T15:14:53.584Z,68.90
2019-02-28T15:17:24.985Z,68.60
2019-02-28T15:19:57.946Z,69.20
2019-02-28T15:22:29.595Z,70.10
2019-02-28T15:25:01.107Z,69.60
2019-02-28T15:27:32.908Z,68.80
2019-02-28T15:30:06.208Z,67.40
2019-02-28T15:32:37.698Z,67.60
2019-02-28T15:35:16.349Z,67.20
2019-02-28T15:37:47.844Z,64.50
2019-02-28T15:40:26.061Z,65.60
2019-02-28T15:42:58.037Z,66.90
2019-02-28T15:45:29.476Z,66.80
2019-02-28T15:48:01.022Z,67.10
2019-02-28T15:50:32.382Z,67.80
2019-02-28T15:53:05.101Z,69.20
2019-02-28T15:55:36.665Z,70.20
2019-02-28T15:58:08.248Z,70.80
2019-02-28T16:00:39.811Z,71.90
2019-02-28T16:03:13.474Z,72.90
2019-02-28T16:05:44.405Z,73.00
2019-02-28T16:08:16.043Z,74.70
2019-02-28T16:10:59.443Z,76.10
2019-02-28T16:13:31.200Z,76.90
2019-02-28T16:16:02.686Z,78.30
2019-02-28T16:18:34.207Z,79.10
2019-02-28T16:21:07.367Z,80.20
2019-02-28T16:23:39.254Z,81.70
2019-02-28T16:26:10.705Z,83.10
2019-02-28T16:28:42.648Z,83.90
2019-02-28T16:31:14.801Z,85.10
2019-02-28T16:33:46.388Z,86.00
2019-02-28T16:36:17.740Z,87.50
2019-02-28T16:38:49.076Z,87.30
2019-02-28T16:41:20.590Z,87.90
2019-02-28T16:43:58.054Z,88.10
2019-02-28T16:46:27.974Z,87.80
2019-02-28T16:49:01.100Z,88.00
2019-02-28T16:51:35.441Z,88.60
2019-02-28T16:54:06.943Z,88.90
2019-02-28T16:56:38.761Z,89.40
2019-02-28T16:59:10.378Z,89.60
2019-02-28T17:01:44.949Z,90.00
2019-02-28T17:04:17.085Z,90.00
2019-02-28T17:06:50.547Z,90.00
2019-02-28T17:09:26.619Z,90.00
2019-02-28T17:12:07.600Z,90.20
2019-02-28T17:14:39.033Z,90.20
2019-02-28T17:17:14.733Z,90.40
2019-02-28T17:19:46.235Z,90.40
2019-02-28T17:22:18.844Z,90.70
2019-02-28T17:24:50.260Z,90.70
2019-02-28T17:27:23.163Z,90.80
2019-02-28T17:29:57.603Z,90.90
2019-02-28T17:32:31.204Z,90.90
2019-02-28T17:35:02.832Z,90.90
2019-02-28T17:37:35.337Z,91.00
2019-02-28T17:40:11.535Z,91.00
2019-02-28T17:42:43.351Z,91.00
2019-02-28T17:45:18.988Z,91.00
2019-02-28T17:48:32.984Z,90.80
2019-02-28T17:51:24.475Z,90.50
2019-02-28T17:54:22.514Z,90.70
2019-02-28T17:57:12.699Z,90.60
2019-02-28T18:00:04.872Z,90.60
2019-02-28T18:02:51.154Z,90.60
2019-02-28T18:05:50.149Z,90.80
2019-02-28T18:08:48.580Z,90.90
2019-02-28T18:11:54.462Z,91.00
2019-02-28T18:14:45.463Z,91.20
2019-02-28T18:17:56.400Z,91.30
2019-02-28T18:20:54.152Z,91.30
2019-02-28T18:24:00.115Z,91.60
2019-02-28T18:27:00.260Z,91.70
2019-02-28T18:30:15.797Z,91.80
2019-02-28T18:32:47.196Z,91.90
2019-02-28T18:35:18.810Z,92.00
2019-02-28T18:37:52.741Z,92.20
2019-02-28T18:40:26.894Z,92.10
2019-02-28T18:42:58.310Z,92.20
2019-02-28T18:45:32.866Z,92.30
2019-02-28T18:48:04.369Z,92.60
2019-02-28T18:50:35.931Z,92.80
2019-02-28T18:53:07.433Z,92.90
2019-02-28T18:55:38.865Z,93.00
2019-02-28T18:58:10.216Z,93.20
2019-02-28T19:00:41.774Z,93.20
2019-02-28T19:03:13.563Z,93.20
2019-02-28T19:05:46.742Z,93.30
2019-02-28T19:08:18.176Z,93.30
2019-02-28T19:11:05.204Z,93.20
2019-02-28T19:13:36.402Z,93.30
2019-02-28T19:16:08.139Z,93.30
2019-02-28T19:18:39.641Z,93.40
2019-02-28T19:21:11.290Z,93.50
2019-02-28T19:23:42.691Z,93.70
2019-02-28T19:28:47.484Z,93.30
2019-02-28T19:31:18.996Z,93.30
2019-02-28T19:33:51.710Z,93.40
2019-02-28T19:36:23.080Z,93.40
2019-02-28T19:38:56.646Z,93.50
2019-02-28T19:41:30.142Z,93.50
2019-02-28T19:44:03.904Z,93.50
2019-02-28T19:46:35.427Z,93.60
2019-02-28T19:49:07.032Z,93.70
2019-02-28T19:51:40.273Z,93.70
2019-02-28T19:54:11.815Z,93.80
2019-02-28T19:56:43.419Z,93.80
2019-02-28T19:59:14.985Z,93.90
2019-02-28T20:01:46.420Z,93.80
2019-02-28T20:04:17.943Z,93.80
2019-02-28T20:06:49.345Z,93.90
2019-02-28T20:09:23.519Z,93.90
2019-02-28T20:11:54.966Z,93.90
2019-02-28T20:14:27.966Z,93.90
2019-02-28T20:16:59.511Z,94.00
2019-02-28T20:19:31.057Z,94.00
2019-02-28T20:22:02.548Z,93.90
2019-02-28T20:24:38.093Z,94.00
2019-02-28T20:27:09.575Z,94.10
2019-02-28T20:29:41.664Z,94.20
2019-02-28T20:32:13.031Z,94.20
2019-02-28T20:34:45.448Z,94.20
2019-02-28T20:37:17.274Z,94.30
2019-02-28T20:39:48.750Z,94.30
2019-02-28T20:42:20.271Z,94.40
2019-02-28T20:44:51.821Z,94.50
2019-02-28T20:47:36.782Z,94.50
2019-02-28T20:50:31.233Z,94.60
2019-02-28T20:53:02.706Z,94.70
2019-02-28T20:55:34.457Z,94.80
2019-02-28T20:58:05.930Z,94.90
2019-02-28T21:00:37.622Z,95.10
2019-02-28T21:03:09.086Z,95.10
2019-02-28T21:05:40.653Z,95.20
2019-02-28T21:08:12.050Z,95.20
2019-02-28T21:10:43.654Z,95.20
2019-02-28T21:13:15.070Z,95.20
2019-02-28T21:15:45.927Z,95.30
2019-02-28T21:18:17.448Z,95.50
2019-02-28T21:20:49.138Z,95.40
2019-02-28T21:23:22.445Z,95.40
2019-02-28T21:25:54.472Z,95.50
2019-02-28T21:28:25.913Z,95.50
2019-02-28T21:30:58.423Z,95.60
2019-02-28T21:33:29.944Z,95.60
2019-02-28T21:36:01.704Z,95.60
2019-02-28T21:38:34.290Z,95.60
2019-02-28T21:41:05.847Z,95.70
2019-02-28T21:43:37.337Z,95.80
2019-02-28T21:46:08.835Z,95.90
2019-02-28T21:48:40.244Z,95.90
2019-02-28T21:51:11.766Z,96.10
2019-02-28T21:53:43.297Z,96.20
2019-02-28T21:56:14.893Z,96.30
2019-02-28T21:58:46.382Z,96.30
2019-02-28T22:01:17.929Z,96.40
2019-02-28T22:03:49.463Z,96.30
2019-02-28T22:06:23.054Z,96.40
2019-02-28T22:08:54.914Z,96.50
2019-02-28T22:11:26.281Z,96.60
2019-02-28T22:13:57.627Z,96.60
2019-02-28T22:16:29.115Z,96.60
2019-02-28T22:19:00.557Z,96.70
2019-02-28T22:21:31.834Z,97.20
2019-02-28T22:24:03.121Z,97.80
2019-02-28T22:26:34.545Z,98.60
2019-02-28T22:29:06.096Z,99.40
2019-02-28T22:31:43.064Z,99.90
2019-02-28T22:34:16.191Z,99.70
2019-02-28T22:36:47.692Z,99.90
2019-02-28T22:39:19.008Z,99.90
2019-02-28T22:41:50.335Z,99.90
2019-02-28T22:44:21.810Z,99.90
2019-02-28T22:46:53.340Z,99.90
2019-02-28T22:49:24.758Z,99.90
2019-02-28T22:51:56.239Z,99.90
2019-02-28T22:54:27.530Z,99.90
2019-02-28T22:56:59.077Z,99.90
2019-02-28T22:59:30.517Z,99.90
2019-02-28T23:02:02.171Z,99.90
2019-02-28T23:04:33.571Z,99.90
2019-02-28T23:07:05.133Z,99.90
2019-02-28T23:09:36.522Z,99.90
2019-02-28T23:12:08.055Z,99.90
2019-02-28T23:14:39.540Z,99.90
2019-02-28T23:17:10.997Z,99.90
2019-02-28T23:19:42.237Z,99.90
2019-02-28T23:22:13.641Z,99.90
2019-02-28T23:24:44.893Z,99.90
2019-02-28T23:27:17.707Z,99.90
2019-02-28T23:29:59.954Z,99.90
2019-02-28T23:32:42.314Z,99.90
2019-02-28T23:35:24.850Z,99.90
2019-02-28T23:37:56.246Z,99.90
2019-02-28T23:40:27.498Z,99.90
2019-02-28T23:42:58.839Z,99.90
2019-02-28T23:45:30.329Z,99.90
2019-02-28T23:48:01.792Z,99.90
2019-02-28T23:50:33.270Z,99.90
2019-02-28T23:53:04.724Z,99.90
2019-02-28T23:55:36.313Z,99.90
2019-02-28T23:58:07.633Z,99.90
